AAL961 KMIA-TJSJ
Flight info
| Callsign | AAL961 |
|---|---|
| Flight time | N/A |
| Altitude | 39000 |
| Route | KLADA2 BITAC Y290 BEANO BEANO3 |
| Aircraft | B772/H-SDE2E3FGHIJ5LORVWXY/LB1D1 |
Departure
| Time | 2026-05-04 16:16 |
|---|---|
| Airport | Miami International Airport (KMIA) |
Arrival
| Time | N/A |
|---|---|
| Airport | Luis Munoz Marin International Airport (TJSJ) |
| Time | Latitude | Longitude | Altitude | Speed | Heading |
|---|---|---|---|---|---|
| 2026-05-04 15:52 | 25.79792 | -80.27659 | 18 ft | 0 kts | 174° |
| 2026-05-04 16:04 | 25.79813 | -80.27661 | 18 ft | 2 kts | 174° |
| 2026-05-04 16:04 | 25.79828 | -80.27663 | 18 ft | 2 kts | 174° |
| 2026-05-04 16:05 | 25.79843 | -80.27664 | 18 ft | 2 kts | 176° |
| 2026-05-04 16:05 | 25.79858 | -80.27663 | 18 ft | 2 kts | 198° |
| 2026-05-04 16:05 | 25.79883 | -80.27645 | 18 ft | 2 kts | 233° |
| 2026-05-04 16:06 | 25.79890 | -80.27631 | 18 ft | 2 kts | 250° |
| 2026-05-04 16:06 | 25.79894 | -80.27612 | 18 ft | 0 kts | 268° |
| 2026-05-04 16:10 | 25.79891 | -80.27699 | 18 ft | 9 kts | 274° |
| 2026-05-04 16:11 | 25.79968 | -80.27973 | 18 ft | 20 kts | 267° |
| 2026-05-04 16:11 | 25.79962 | -80.28134 | 18 ft | 20 kts | 268° |
| 2026-05-04 16:12 | 25.79941 | -80.28635 | 18 ft | 22 kts | 268° |
| 2026-05-04 16:12 | 25.79919 | -80.29167 | 18 ft | 24 kts | 268° |
| 2026-05-04 16:13 | 25.79915 | -80.29332 | 18 ft | 9 kts | 279° |
| 2026-05-04 16:13 | 25.79986 | -80.29530 | 18 ft | 20 kts | 267° |
| 2026-05-04 16:14 | 25.79975 | -80.29861 | 18 ft | 21 kts | 269° |
| 2026-05-04 16:14 | 25.80019 | -80.30101 | 18 ft | 7 kts | 309° |
| 2026-05-04 16:15 | 25.80096 | -80.29573 | 18 ft | 90 kts | 87° |
| 2026-05-04 16:16 | 25.80147 | -80.27303 | 409 ft | 177 kts | 98° |
| 2026-05-04 16:16 | 25.78477 | -80.23654 | 2518 ft | 202 kts | 97° |
| 2026-05-04 16:17 | 25.77767 | -80.20386 | 3971 ft | 237 kts | 103° |
| 2026-05-04 16:18 | 25.76395 | -80.14626 | 6384 ft | 277 kts | 105° |
| 2026-05-04 16:18 | 25.75898 | -80.12539 | 7295 ft | 285 kts | 105° |
| 2026-05-04 16:19 | 25.74341 | -80.05998 | 9754 ft | 307 kts | 106° |
| 2026-05-04 16:19 | 25.73205 | -80.01237 | 10924 ft | 339 kts | 106° |
| 2026-05-04 16:20 | 25.71244 | -79.93032 | 12411 ft | 396 kts | 106° |
| 2026-05-04 16:20 | 25.69776 | -79.86900 | 13547 ft | 425 kts | 106° |
| 2026-05-04 16:21 | 25.67475 | -79.77312 | 16198 ft | 437 kts | 106° |
| 2026-05-04 16:22 | 25.65887 | -79.70715 | 17732 ft | 450 kts | 107° |
| 2026-05-04 16:22 | 25.63443 | -79.60585 | 20122 ft | 466 kts | 106° |
| 2026-05-04 16:23 | 25.60879 | -79.49998 | 22405 ft | 484 kts | 105° |
| 2026-05-04 16:24 | 25.57317 | -79.35346 | 25200 ft | 508 kts | 106° |
| 2026-05-04 16:25 | 25.55351 | -79.27767 | 26390 ft | 519 kts | 112° |
| 2026-05-04 16:26 | 25.48933 | -79.13187 | 28725 ft | 538 kts | 119° |
| 2026-05-04 16:26 | 25.43840 | -79.01994 | 30785 ft | 541 kts | 120° |
| 2026-05-04 16:27 | 25.40495 | -78.94651 | 32636 ft | 529 kts | 120° |
| 2026-05-04 16:28 | 25.35582 | -78.83892 | 34749 ft | 527 kts | 122° |
| 2026-05-04 16:28 | 25.30635 | -78.73089 | 36471 ft | 529 kts | 123° |
| 2026-05-04 16:29 | 25.23964 | -78.58559 | 38276 ft | 533 kts | 124° |
| 2026-05-04 16:30 | 25.18895 | -78.47550 | 39009 ft | 540 kts | 123° |
| 2026-05-04 16:31 | 25.15514 | -78.40216 | 39014 ft | 537 kts | 123° |
| 2026-05-04 16:32 | 25.05299 | -78.18138 | 38982 ft | 536 kts | 124° |
| 2026-05-04 16:33 | 24.98505 | -78.03518 | 38993 ft | 536 kts | 123° |
| 2026-05-04 16:34 | 24.93420 | -77.92604 | 38989 ft | 540 kts | 124° |
| 2026-05-04 16:35 | 24.83139 | -77.70618 | 39008 ft | 539 kts | 123° |
| 2026-05-04 16:36 | 24.77974 | -77.59611 | 39019 ft | 540 kts | 123° |
| 2026-05-04 16:37 | 24.72859 | -77.48619 | 39014 ft | 541 kts | 123° |
| 2026-05-04 16:38 | 24.66106 | -77.33809 | 38999 ft | 542 kts | 123° |
| 2026-05-04 16:39 | 24.57666 | -77.15388 | 38998 ft | 541 kts | 123° |
| 2026-05-04 16:40 | 24.50881 | -77.00644 | 38994 ft | 542 kts | 123° |
| 2026-05-04 16:41 | 24.42396 | -76.82271 | 38998 ft | 541 kts | 123° |
| 2026-05-04 16:43 | 24.33901 | -76.63948 | 39015 ft | 541 kts | 123° |
| 2026-05-04 16:43 | 24.28784 | -76.52948 | 39015 ft | 540 kts | 123° |
| 2026-05-04 16:45 | 24.18566 | -76.31056 | 38999 ft | 538 kts | 123° |
| 2026-05-04 16:46 | 24.10043 | -76.12878 | 38999 ft | 539 kts | 123° |
| 2026-05-04 16:47 | 24.03198 | -75.98322 | 39004 ft | 535 kts | 123° |
| 2026-05-04 16:48 | 23.96395 | -75.83906 | 39011 ft | 534 kts | 123° |
| 2026-05-04 16:49 | 23.89558 | -75.69461 | 39013 ft | 536 kts | 123° |
| 2026-05-04 16:50 | 23.82717 | -75.55047 | 39016 ft | 533 kts | 123° |
| 2026-05-04 16:51 | 23.77587 | -75.44270 | 39022 ft | 535 kts | 122° |
| 2026-05-04 16:52 | 23.70613 | -75.29656 | 39005 ft | 533 kts | 123° |
| 2026-05-04 16:53 | 23.65354 | -75.18668 | 39002 ft | 535 kts | 123° |
| 2026-05-04 16:54 | 23.58487 | -75.04353 | 39004 ft | 532 kts | 122° |
| 2026-05-04 16:55 | 23.48061 | -74.82702 | 39009 ft | 535 kts | 122° |
| 2026-05-04 16:56 | 23.39382 | -74.64750 | 39014 ft | 532 kts | 122° |
| 2026-05-04 16:57 | 23.34150 | -74.53960 | 39013 ft | 533 kts | 122° |
| 2026-05-04 16:58 | 23.27234 | -74.39735 | 39018 ft | 530 kts | 122° |
| 2026-05-04 17:00 | 23.16879 | -74.18512 | 39001 ft | 530 kts | 122° |
| 2026-05-04 17:01 | 23.08223 | -74.00840 | 39002 ft | 528 kts | 122° |
| 2026-05-04 17:02 | 23.01307 | -73.86766 | 39006 ft | 529 kts | 122° |
| 2026-05-04 17:03 | 22.96087 | -73.76171 | 39011 ft | 532 kts | 122° |
| 2026-05-04 17:03 | 22.90895 | -73.65652 | 39014 ft | 530 kts | 122° |
| 2026-05-04 17:04 | 22.83978 | -73.51675 | 39018 ft | 529 kts | 122° |
| 2026-05-04 17:05 | 22.77002 | -73.37618 | 39020 ft | 529 kts | 122° |
| 2026-05-04 17:06 | 22.71781 | -73.27122 | 39003 ft | 529 kts | 122° |
| 2026-05-04 17:07 | 22.67110 | -73.17750 | 39004 ft | 529 kts | 122° |
| 2026-05-04 17:07 | 22.63040 | -73.09598 | 39006 ft | 528 kts | 122° |
| 2026-05-04 17:08 | 22.57799 | -72.99122 | 39008 ft | 529 kts | 122° |
| 2026-05-04 17:09 | 22.54293 | -72.92125 | 39009 ft | 528 kts | 122° |
| 2026-05-04 17:09 | 22.50829 | -72.85220 | 39010 ft | 525 kts | 122° |
| 2026-05-04 17:10 | 22.42078 | -72.67821 | 39013 ft | 526 kts | 122° |
| 2026-05-04 17:11 | 22.38598 | -72.60920 | 39014 ft | 528 kts | 122° |
| 2026-05-04 17:12 | 22.33352 | -72.50530 | 39016 ft | 524 kts | 122° |
| 2026-05-04 17:13 | 22.24558 | -72.33163 | 39002 ft | 525 kts | 122° |
| 2026-05-04 17:14 | 22.17557 | -72.19377 | 39005 ft | 526 kts | 122° |
| 2026-05-04 17:15 | 22.12296 | -72.09042 | 39006 ft | 524 kts | 122° |
| 2026-05-04 17:16 | 22.05274 | -71.95278 | 39008 ft | 523 kts | 122° |
| 2026-05-04 17:17 | 21.98245 | -71.81539 | 39010 ft | 524 kts | 122° |
| 2026-05-04 17:18 | 21.91217 | -71.67837 | 39005 ft | 522 kts | 122° |
| 2026-05-04 17:19 | 21.84191 | -71.54175 | 39004 ft | 521 kts | 122° |
| 2026-05-04 17:20 | 21.77161 | -71.40540 | 39007 ft | 522 kts | 121° |
| 2026-05-04 17:20 | 21.71899 | -71.30356 | 38999 ft | 521 kts | 122° |
| 2026-05-04 17:21 | 21.64849 | -71.16741 | 38999 ft | 520 kts | 122° |
| 2026-05-04 17:22 | 21.61335 | -71.09971 | 39004 ft | 522 kts | 122° |
| 2026-05-04 17:23 | 21.53742 | -70.96790 | 39008 ft | 517 kts | 127° |
| 2026-05-04 17:24 | 21.47667 | -70.87223 | 39010 ft | 517 kts | 128° |
| 2026-05-04 17:25 | 21.39597 | -70.74551 | 39013 ft | 516 kts | 127° |
| 2026-05-04 17:26 | 21.31475 | -70.61832 | 39018 ft | 517 kts | 127° |